createdAt,value
2022-08-08T00:00:56.014Z,59.20
2022-08-08T00:02:31.564Z,59.60
2022-08-08T00:05:44.211Z,60.00
2022-08-08T00:08:56.456Z,60.00
2022-08-08T00:12:09.756Z,59.40
2022-08-08T00:14:57.176Z,59.40
2022-08-08T00:18:02.971Z,60.60
2022-08-08T00:20:53.991Z,60.30
2022-08-08T00:23:52.359Z,60.00
2022-08-08T00:26:39.938Z,60.10
2022-08-08T00:29:45.181Z,60.00
2022-08-08T00:32:50.369Z,60.80
2022-08-08T00:35:37.429Z,59.60
2022-08-08T00:38:31.404Z,59.50
2022-08-08T00:41:45.258Z,60.60
2022-08-08T00:44:19.911Z,59.40
2022-08-08T00:48:05.083Z,60.70
2022-08-08T00:50:35.758Z,59.80
2022-08-08T00:53:19.598Z,60.60
2022-08-08T00:56:12.922Z,60.80
2022-08-08T00:59:44.735Z,60.20
2022-08-08T01:03:57.376Z,61.10
2022-08-08T01:06:49.609Z,60.10
2022-08-08T01:09:53.807Z,59.90
2022-08-08T01:12:48.053Z,61.10
2022-08-08T01:15:53.337Z,60.10
2022-08-08T01:18:58.811Z,60.10
2022-08-08T01:22:09.893Z,61.30
2022-08-08T01:24:40.646Z,61.40
2022-08-08T01:27:44.705Z,61.60
2022-08-08T01:30:27.582Z,61.50
2022-08-08T01:34:00.162Z,61.80
2022-08-08T01:37:13.785Z,60.90
2022-08-08T01:40:36.929Z,61.10
2022-08-08T01:43:39.731Z,61.00
2022-08-08T01:46:47.728Z,61.70
2022-08-08T01:49:53.591Z,61.20
2022-08-08T01:54:08.287Z,61.50
2022-08-08T01:56:28.455Z,61.50
2022-08-08T01:59:17.996Z,62.10
2022-08-08T02:02:05.275Z,62.20
2022-08-08T02:04:43.818Z,62.10
2022-08-08T02:07:41.645Z,62.80
2022-08-08T02:11:23.521Z,62.30
2022-08-08T02:14:49.923Z,62.10
2022-08-08T02:18:00.287Z,62.50
2022-08-08T02:21:02.171Z,62.20
2022-08-08T02:23:36.954Z,62.80
2022-08-08T02:26:24.285Z,62.80
2022-08-08T02:29:51.856Z,62.70
2022-08-08T02:32:42.584Z,62.70
2022-08-08T02:36:03.794Z,63.00
2022-08-08T02:39:03.045Z,62.80
2022-08-08T02:42:41.914Z,62.90
2022-08-08T02:45:54.200Z,62.90
2022-08-08T02:48:32.933Z,62.90
2022-08-08T02:51:46.463Z,63.60
2022-08-08T02:54:54.835Z,63.00
2022-08-08T02:58:15.257Z,63.70
2022-08-08T03:01:15.006Z,63.40
2022-08-08T03:05:04.487Z,63.30
2022-08-08T03:07:58.190Z,63.50
2022-08-08T03:11:03.342Z,63.40
2022-08-08T03:15:59.454Z,63.50
2022-08-08T03:17:39.345Z,63.40
2022-08-08T03:20:07.995Z,64.00
2022-08-08T03:22:57.094Z,64.20
2022-08-08T03:25:36.138Z,64.00
2022-08-08T03:28:35.528Z,64.50
2022-08-08T03:31:25.457Z,64.60
2022-08-08T03:34:00.785Z,64.60
2022-08-08T03:36:30.183Z,64.50
2022-08-08T03:39:14.938Z,64.60
2022-08-08T03:42:12.520Z,64.50
2022-08-08T03:44:35.815Z,64.50
2022-08-08T03:47:07.050Z,64.30
2022-08-08T03:50:00.464Z,64.60
2022-08-08T03:52:31.961Z,64.70
2022-08-08T03:55:19.815Z,64.70
2022-08-08T03:58:33.575Z,64.80
2022-08-08T04:01:02.131Z,64.70
2022-08-08T04:03:58.897Z,64.70
2022-08-08T04:06:29.934Z,64.80
2022-08-08T04:09:10.526Z,65.00
2022-08-08T04:11:58.061Z,64.90
2022-08-08T04:14:34.595Z,64.70
2022-08-08T04:17:04.303Z,64.90
2022-08-08T04:19:36.709Z,65.00
2022-08-08T04:22:04.629Z,64.10
2022-08-08T04:24:31.953Z,65.10
2022-08-08T04:27:02.223Z,65.10
2022-08-08T04:29:37.480Z,65.00
2022-08-08T04:32:07.196Z,65.30
2022-08-08T04:34:49.185Z,65.40
2022-08-08T04:37:26.315Z,65.60
2022-08-08T04:40:05.140Z,65.60
2022-08-08T04:42:36.971Z,65.60
2022-08-08T04:45:06.173Z,65.80
2022-08-08T04:47:36.502Z,65.80
2022-08-08T04:50:14.329Z,65.90
2022-08-08T04:53:01.089Z,65.90
2022-08-08T04:55:47.711Z,64.80
2022-08-08T04:58:21.793Z,65.90
2022-08-08T05:00:52.377Z,65.80
2022-08-08T05:04:09.843Z,65.80
2022-08-08T05:06:12.675Z,65.80
2022-08-08T05:08:51.551Z,65.50
2022-08-08T05:11:24.567Z,65.40
2022-08-08T05:13:57.670Z,65.40
2022-08-08T05:16:54.289Z,65.40
2022-08-08T05:20:12.686Z,65.30
2022-08-08T05:22:10.398Z,65.30
2022-08-08T05:24:38.455Z,65.40
2022-08-08T05:27:06.494Z,65.50
2022-08-08T05:29:35.582Z,65.30
2022-08-08T05:32:07.498Z,65.00
2022-08-08T05:34:43.633Z,65.00
2022-08-08T05:37:19.078Z,64.40
2022-08-08T05:39:56.994Z,64.70
2022-08-08T05:42:41.936Z,63.70
2022-08-08T05:45:25.395Z,64.70
2022-08-08T05:48:01.255Z,64.60
2022-08-08T05:50:33.348Z,64.50
2022-08-08T05:53:55.425Z,64.20
2022-08-08T05:56:10.032Z,64.30
2022-08-08T05:58:57.721Z,64.80
2022-08-08T06:01:55.750Z,64.00
2022-08-08T06:04:26.036Z,64.50
2022-08-08T06:07:00.317Z,63.90
2022-08-08T06:10:00.532Z,64.10
2022-08-08T06:12:30.399Z,63.80
2022-08-08T06:15:02.770Z,63.80
2022-08-08T06:17:51.138Z,63.10
2022-08-08T06:20:22.967Z,63.30
2022-08-08T06:22:53.598Z,63.60
2022-08-08T06:26:34.804Z,63.50
2022-08-08T06:28:43.515Z,63.40
2022-08-08T06:31:18.676Z,61.50
2022-08-08T06:34:28.482Z,63.00
2022-08-08T06:37:00.195Z,61.60
2022-08-08T06:39:33.325Z,62.80
2022-08-08T06:42:02.805Z,62.30
2022-08-08T06:44:31.335Z,62.80
2022-08-08T06:46:59.529Z,62.70
2022-08-08T06:49:55.174Z,62.60
2022-08-08T06:52:17.293Z,62.40
2022-08-08T06:54:48.766Z,62.30
2022-08-08T06:57:16.146Z,62.40
2022-08-08T07:00:09.887Z,62.40
2022-08-08T07:02:35.109Z,62.30
2022-08-08T07:05:12.034Z,61.60
2022-08-08T07:07:52.807Z,61.40
2022-08-08T07:10:25.519Z,60.10
2022-08-08T07:13:04.053Z,61.20
2022-08-08T07:16:03.919Z,61.20
2022-08-08T07:19:18.039Z,60.40
2022-08-08T07:22:05.498Z,58.80
2022-08-08T07:24:53.461Z,59.10
2022-08-08T07:27:35.091Z,59.20
2022-08-08T07:30:21.345Z,60.30
2022-08-08T07:32:53.531Z,60.60
2022-08-08T07:35:21.818Z,60.20
2022-08-08T07:38:04.519Z,60.80
2022-08-08T07:40:36.049Z,59.90
2022-08-08T07:43:09.688Z,60.00
2022-08-08T07:46:05.650Z,59.60
2022-08-08T07:48:29.857Z,59.40
2022-08-08T07:51:00.927Z,59.10
2022-08-08T07:54:02.482Z,58.40
2022-08-08T07:57:01.856Z,56.70
2022-08-08T07:59:40.025Z,56.80
2022-08-08T08:02:32.818Z,56.90
2022-08-08T08:05:21.256Z,56.00
2022-08-08T08:07:54.892Z,57.60
2022-08-08T08:10:30.690Z,57.80
2022-08-08T08:13:42.773Z,57.60
2022-08-08T08:16:26.479Z,55.50
2022-08-08T08:19:10.620Z,56.00
2022-08-08T08:21:57.845Z,56.60
2022-08-08T08:24:32.045Z,56.90
2022-08-08T08:27:02.733Z,55.90
2022-08-08T08:29:30.940Z,55.70
2022-08-08T08:31:59.279Z,55.30
2022-08-08T08:34:33.718Z,55.00
2022-08-08T08:37:07.779Z,55.50
2022-08-08T08:39:59.778Z,54.30
2022-08-08T08:42:31.593Z,56.00
2022-08-08T08:45:20.910Z,55.80
2022-08-08T08:47:54.145Z,54.80
2022-08-08T08:50:34.064Z,54.70
2022-08-08T08:53:27.833Z,53.80
2022-08-08T08:56:02.092Z,51.70
2022-08-08T08:58:35.438Z,53.30
2022-08-08T09:01:10.201Z,49.80
2022-08-08T09:03:46.718Z,51.10
2022-08-08T09:06:28.252Z,49.50
2022-08-08T09:09:26.543Z,46.60
2022-08-08T09:12:01.757Z,46.00
2022-08-08T09:14:35.400Z,49.10
2022-08-08T09:17:08.888Z,47.70
2022-08-08T09:21:59.848Z,47.10
2022-08-08T09:22:27.537Z,46.30
2022-08-08T09:24:56.479Z,45.90
2022-08-08T09:27:42.119Z,45.20
2022-08-08T09:30:17.457Z,44.90
2022-08-08T09:33:12.720Z,44.10
2022-08-08T09:35:50.073Z,44.40
2022-08-08T09:38:59.802Z,43.80
2022-08-08T09:42:20.394Z,41.50
2022-08-08T09:45:55.431Z,40.30
2022-08-08T09:48:15.969Z,40.60
2022-08-08T09:50:51.234Z,43.20
2022-08-08T09:53:23.516Z,43.60
2022-08-08T09:56:06.032Z,43.50
2022-08-08T09:58:48.322Z,43.30
2022-08-08T10:01:59.878Z,39.10
2022-08-08T10:04:38.259Z,39.50
2022-08-08T10:07:07.385Z,40.50
2022-08-08T10:09:35.811Z,42.60
2022-08-08T10:12:53.964Z,42.20
2022-08-08T10:16:00.585Z,38.90
2022-08-08T10:18:33.629Z,41.50
2022-08-08T10:21:22.764Z,39.90
2022-08-08T10:24:03.712Z,37.10
2022-08-08T10:26:59.836Z,38.70
2022-08-08T10:30:04.095Z,36.50
2022-08-08T10:32:35.470Z,36.70
2022-08-08T10:36:07.278Z,40.00
2022-08-08T10:38:08.318Z,37.50
2022-08-08T10:40:39.060Z,40.70
2022-08-08T10:43:09.692Z,39.50
2022-08-08T10:45:55.060Z,40.30
2022-08-08T10:48:37.403Z,37.60
2022-08-08T10:51:21.940Z,36.70
2022-08-08T10:53:57.377Z,39.30
2022-08-08T10:56:27.765Z,38.50
2022-08-08T10:59:12.128Z,38.20
2022-08-08T11:01:49.503Z,36.10
2022-08-08T11:04:29.964Z,36.60
2022-08-08T11:07:07.526Z,39.30
2022-08-08T11:09:48.159Z,40.30
2022-08-08T11:12:15.119Z,37.70
2022-08-08T11:14:57.111Z,40.80
2022-08-08T11:18:01.297Z,37.00
2022-08-08T11:20:28.692Z,38.40
2022-08-08T11:23:00.633Z,35.30
2022-08-08T11:25:52.809Z,36.70
2022-08-08T11:28:35.318Z,35.00
2022-08-08T11:31:09.518Z,34.70
2022-08-08T11:34:01.752Z,36.00
2022-08-08T11:36:29.036Z,35.70
2022-08-08T11:38:57.017Z,35.70
2022-08-08T11:41:27.982Z,35.40
2022-08-08T11:44:01.325Z,35.40
2022-08-08T11:46:31.824Z,35.40
2022-08-08T11:49:07.098Z,35.50
2022-08-08T11:51:40.099Z,35.30
2022-08-08T11:54:31.665Z,35.50
2022-08-08T11:57:27.656Z,35.90
2022-08-08T12:00:06.143Z,35.40
2022-08-08T12:02:47.537Z,35.60
2022-08-08T12:05:15.175Z,37.00
2022-08-08T12:07:51.542Z,37.40
2022-08-08T12:10:30.164Z,36.60
2022-08-08T12:13:12.111Z,37.80
2022-08-08T12:16:00.171Z,37.00
2022-08-08T12:18:28.699Z,38.10
2022-08-08T12:20:59.419Z,38.20
2022-08-08T12:23:43.129Z,38.10
2022-08-08T12:26:47.024Z,37.10
2022-08-08T12:29:40.640Z,37.20
2022-08-08T12:32:20.905Z,37.50
2022-08-08T12:35:13.262Z,37.60
2022-08-08T12:38:02.271Z,39.20
2022-08-08T12:40:58.489Z,38.80
2022-08-08T12:43:43.801Z,37.70
2022-08-08T12:46:25.364Z,38.30
2022-08-08T12:51:59.118Z,39.30
2022-08-08T12:54:36.840Z,39.30
2022-08-08T12:57:26.040Z,38.00
2022-08-08T13:00:03.838Z,38.20
2022-08-08T13:02:41.905Z,39.60
2022-08-08T13:05:26.597Z,39.20
2022-08-08T13:08:20.382Z,38.20
2022-08-08T13:10:58.139Z,38.10
2022-08-08T13:13:34.744Z,38.50
2022-08-08T13:16:25.866Z,39.10
2022-08-08T13:19:00.653Z,38.50
2022-08-08T13:21:48.951Z,40.00
2022-08-08T13:24:39.533Z,40.10
2022-08-08T13:27:11.738Z,40.20
2022-08-08T13:29:55.303Z,39.40
2022-08-08T13:32:25.525Z,38.10
2022-08-08T13:34:54.894Z,39.40
2022-08-08T13:37:51.753Z,40.50
2022-08-08T13:40:11.295Z,39.70
2022-08-08T13:42:45.521Z,39.30
2022-08-08T13:45:13.218Z,39.20
2022-08-08T13:47:54.155Z,38.90
2022-08-08T13:50:36.064Z,39.10
2022-08-08T13:53:24.760Z,39.30
2022-08-08T13:56:06.117Z,39.20
2022-08-08T13:58:34.483Z,37.70
2022-08-08T14:01:19.184Z,39.80
2022-08-08T14:03:56.161Z,38.10
2022-08-08T14:06:34.067Z,37.20
2022-08-08T14:09:24.954Z,37.90
2022-08-08T14:11:50.589Z,38.40
2022-08-08T14:14:20.918Z,38.40
2022-08-08T14:16:54.009Z,38.40
2022-08-08T14:19:57.718Z,39.30
2022-08-08T14:22:26.443Z,36.60
2022-08-08T14:25:07.616Z,39.10
2022-08-08T14:27:40.563Z,38.90
2022-08-08T14:30:18.274Z,38.40
2022-08-08T14:32:53.989Z,36.00
2022-08-08T14:35:35.352Z,34.10
2022-08-08T14:38:33.429Z,36.40
2022-08-08T14:40:59.456Z,33.40
2022-08-08T14:44:02.533Z,33.00
2022-08-08T14:46:32.709Z,32.60
2022-08-08T14:49:20.803Z,33.50
2022-08-08T14:52:08.751Z,32.20
2022-08-08T14:54:49.597Z,30.00
2022-08-08T14:57:17.206Z,29.40
2022-08-08T14:59:50.887Z,31.20
2022-08-08T15:02:31.101Z,31.20
2022-08-08T15:05:10.639Z,30.10
2022-08-08T15:07:41.232Z,33.60
2022-08-08T15:10:13.687Z,34.50
2022-08-08T15:12:41.582Z,34.20
2022-08-08T15:15:10.047Z,34.10
2022-08-08T15:17:38.052Z,33.50
2022-08-08T15:20:13.832Z,33.50
2022-08-08T15:22:44.625Z,33.80
2022-08-08T15:25:17.317Z,33.40
2022-08-08T15:28:04.586Z,33.00
2022-08-08T15:30:34.877Z,33.30
2022-08-08T15:33:01.710Z,32.20
2022-08-08T15:35:28.910Z,31.70
2022-08-08T15:38:04.522Z,31.20
2022-08-08T15:40:37.200Z,30.50
2022-08-08T15:43:35.017Z,30.20
2022-08-08T15:45:53.492Z,30.30
2022-08-08T15:48:20.382Z,30.70
2022-08-08T15:51:02.972Z,30.30
2022-08-08T15:53:33.341Z,29.90
2022-08-08T15:56:16.491Z,29.80
2022-08-08T15:58:48.911Z,29.70
2022-08-08T16:01:17.245Z,29.70
2022-08-08T16:03:46.091Z,29.70
2022-08-08T16:06:28.429Z,29.50
2022-08-08T16:13:00.303Z,28.90
2022-08-08T16:13:14.782Z,28.90
2022-08-08T16:14:34.625Z,29.00
2022-08-08T16:17:02.851Z,29.10
2022-08-08T16:19:59.833Z,28.70
2022-08-08T16:22:30.273Z,28.70
2022-08-08T16:25:09.197Z,28.60
2022-08-08T16:27:36.926Z,28.50
2022-08-08T16:30:14.467Z,28.20
2022-08-08T16:32:43.467Z,28.20
2022-08-08T16:35:15.723Z,28.30
2022-08-08T16:37:47.385Z,28.20
2022-08-08T16:40:19.566Z,28.00
2022-08-08T16:42:51.841Z,27.90
2022-08-08T16:46:37.936Z,28.00
2022-08-08T16:48:08.883Z,27.90
2022-08-08T16:50:35.781Z,27.80
2022-08-08T16:55:00.057Z,27.90
2022-08-08T16:55:56.123Z,27.80
2022-08-08T16:58:32.689Z,28.00
2022-08-08T17:01:05.892Z,27.50
2022-08-08T17:04:01.141Z,27.50
2022-08-08T17:06:36.567Z,27.60
2022-08-08T17:09:06.957Z,27.90
2022-08-08T17:11:39.550Z,27.90
2022-08-08T17:14:19.378Z,27.90
2022-08-08T17:16:57.602Z,27.90
2022-08-08T17:19:28.770Z,27.70
2022-08-08T17:21:57.603Z,27.90
2022-08-08T17:24:30.154Z,27.90
2022-08-08T17:26:58.697Z,27.80
2022-08-08T17:29:28.046Z,27.80
2022-08-08T17:31:57.492Z,27.70
2022-08-08T17:34:53.027Z,28.10
2022-08-08T17:37:13.690Z,27.80
2022-08-08T17:40:03.019Z,28.10
2022-08-08T17:42:28.368Z,28.20
2022-08-08T17:44:58.093Z,28.40
2022-08-08T17:47:28.168Z,28.50
2022-08-08T17:50:01.058Z,28.80
2022-08-08T17:52:33.347Z,28.90
2022-08-08T17:55:05.406Z,29.20
2022-08-08T17:57:35.351Z,29.30
2022-08-08T18:00:13.389Z,29.60
2022-08-08T18:03:02.132Z,29.80
2022-08-08T18:05:48.265Z,30.00
2022-08-08T18:08:24.868Z,30.20
2022-08-08T18:11:15.201Z,31.00
2022-08-08T18:13:45.233Z,30.70
2022-08-08T18:16:16.847Z,31.20
2022-08-08T18:18:53.433Z,31.40
2022-08-08T18:21:35.198Z,31.80
2022-08-08T18:24:19.158Z,32.00
2022-08-08T18:26:54.952Z,32.30
2022-08-08T18:29:33.492Z,32.40
2022-08-08T18:32:07.558Z,32.70
2022-08-08T18:34:37.765Z,33.00
2022-08-08T18:37:06.650Z,33.20
2022-08-08T18:39:41.290Z,33.40
2022-08-08T18:42:15.708Z,33.70
2022-08-08T18:44:52.943Z,33.90
2022-08-08T18:47:24.432Z,34.10
2022-08-08T18:49:58.402Z,34.30
2022-08-08T18:52:30.875Z,34.70
2022-08-08T18:55:01.020Z,34.80
2022-08-08T18:57:41.139Z,35.00
2022-08-08T19:00:16.767Z,35.30
2022-08-08T19:02:55.606Z,35.50
2022-08-08T19:05:34.823Z,35.60
2022-08-08T19:08:28.520Z,36.30
2022-08-08T19:11:01.280Z,36.10
2022-08-08T19:13:52.773Z,35.10
2022-08-08T19:16:20.318Z,36.60
2022-08-08T19:19:00.089Z,36.90
2022-08-08T19:21:33.207Z,37.10
2022-08-08T19:24:05.854Z,37.20
2022-08-08T19:26:37.799Z,37.60
2022-08-08T19:29:06.725Z,37.80
2022-08-08T19:31:35.758Z,37.80
2022-08-08T19:34:35.634Z,38.10
2022-08-08T19:36:59.302Z,38.90
2022-08-08T19:39:30.835Z,38.90
2022-08-08T19:42:04.419Z,39.50
2022-08-08T19:44:43.245Z,38.80
2022-08-08T19:47:14.197Z,38.90
2022-08-08T19:49:43.317Z,38.80
2022-08-08T19:52:34.270Z,38.90
2022-08-08T19:55:09.420Z,39.00
2022-08-08T19:57:41.240Z,39.10
2022-08-08T20:00:30.476Z,39.30
2022-08-08T20:03:14.987Z,39.40
2022-08-08T20:06:14.557Z,39.60
2022-08-08T20:08:47.741Z,39.40
2022-08-08T20:11:15.461Z,39.50
2022-08-08T20:14:32.042Z,39.60
2022-08-08T20:16:30.196Z,39.80
2022-08-08T20:18:57.496Z,39.90
2022-08-08T20:21:26.282Z,40.10
2022-08-08T20:23:57.836Z,40.30
2022-08-08T20:26:33.442Z,40.40
2022-08-08T20:29:03.015Z,40.50
2022-08-08T20:32:07.388Z,40.70
2022-08-08T20:34:28.853Z,40.80
2022-08-08T20:36:58.686Z,41.00
2022-08-08T20:39:33.826Z,41.20
2022-08-08T20:42:09.196Z,41.30
2022-08-08T20:44:37.597Z,41.40
2022-08-08T20:47:05.384Z,41.70
2022-08-08T20:49:46.804Z,41.70
2022-08-08T20:52:15.411Z,41.90
2022-08-08T20:54:42.548Z,42.20
2022-08-08T20:57:16.954Z,42.70
2022-08-08T20:59:46.747Z,42.40
2022-08-08T21:02:16.445Z,42.60
2022-08-08T21:04:47.850Z,42.60
2022-08-08T21:07:17.533Z,42.70
2022-08-08T21:10:12.189Z,42.80
2022-08-08T21:12:41.454Z,42.80
2022-08-08T21:15:16.257Z,42.90
2022-08-08T21:17:59.207Z,43.10
2022-08-08T21:20:34.672Z,43.30
2022-08-08T21:23:08.863Z,43.30
2022-08-08T21:25:36.781Z,43.60
2022-08-08T21:28:15.079Z,43.70
2022-08-08T21:30:45.213Z,43.80
2022-08-08T21:33:16.882Z,43.70
2022-08-08T21:36:13.982Z,43.90
2022-08-08T21:38:31.196Z,44.10
2022-08-08T21:40:59.045Z,44.10
2022-08-08T21:43:33.959Z,44.20
2022-08-08T21:48:05.360Z,44.30
2022-08-08T21:48:56.344Z,45.00
2022-08-08T21:54:30.734Z,44.50
2022-08-08T21:54:34.460Z,44.70
2022-08-08T21:57:03.690Z,44.70
2022-08-08T22:00:01.641Z,44.80
2022-08-08T22:02:19.530Z,44.90
2022-08-08T22:04:51.569Z,45.00
2022-08-08T22:07:19.127Z,45.10
2022-08-08T22:09:46.248Z,45.30
2022-08-08T22:12:15.125Z,45.40
2022-08-08T22:14:47.390Z,45.50
2022-08-08T22:17:18.407Z,45.70
2022-08-08T22:20:10.981Z,45.80
2022-08-08T22:22:38.083Z,46.00
2022-08-08T22:25:19.833Z,46.00
2022-08-08T22:28:03.842Z,46.10
2022-08-08T22:30:33.577Z,46.50
2022-08-08T22:33:02.537Z,46.30
2022-08-08T22:36:04.307Z,46.40
2022-08-08T22:38:23.573Z,46.40
2022-08-08T22:40:51.172Z,46.40
2022-08-08T22:43:21.769Z,46.70
2022-08-08T22:45:52.589Z,46.90
2022-08-08T22:48:21.454Z,47.30
2022-08-08T22:50:48.934Z,47.20
2022-08-08T22:54:27.927Z,47.30
2022-08-08T22:56:03.813Z,47.60
2022-08-08T22:58:34.197Z,47.50
2022-08-08T23:01:16.658Z,47.60
2022-08-08T23:03:56.219Z,48.30
2022-08-08T23:06:27.246Z,47.90
2022-08-08T23:08:59.075Z,48.10
2022-08-08T23:11:31.304Z,48.30
2022-08-08T23:14:18.932Z,48.40
2022-08-08T23:16:53.197Z,48.50
2022-08-08T23:19:26.118Z,48.50
2022-08-08T23:21:53.090Z,48.80
2022-08-08T23:24:22.326Z,48.90
2022-08-08T23:26:52.979Z,49.00
2022-08-08T23:29:29.892Z,49.20
2022-08-08T23:31:58.541Z,49.30
2022-08-08T23:34:25.656Z,49.40
2022-08-08T23:37:00.755Z,49.50
2022-08-08T23:39:49.258Z,49.60
2022-08-08T23:42:22.256Z,49.70
2022-08-08T23:44:49.626Z,49.70
2022-08-08T23:49:01.798Z,49.80
2022-08-08T23:50:06.552Z,49.90
2022-08-08T23:52:41.451Z,50.00
2022-08-08T23:55:22.289Z,50.10
2022-08-08T23:57:52.263Z,50.30
